Terminal Aerodrome Forecast
Issued by NWS

Home | Current Version | Previous Version | Graphics & Text | Print | Product List | Glossary On
Versions: 1 2 3 4 5 6 7 8 9 10 11 12 13 14 15 16 17 18
000
FTUS42 KMHX 281700
TAFPGV
TAF
KPGV 281729Z 2818/2918 28003KT P6SM FEW040
     FM282300 02002KT P6SM SCT050
     FM290600 13005KT 5SM BR BKN050
     FM291300 08005KT P6SM SCT035
      AMD LTD TO CLD VIS AND WIND=

USA.gov is the U.S. government's official web portal to all federal, state and local government web resources and services.